Date,TemperatureHighF,TemperatureAvgF,TemperatureLowF,DewpointHighF,DewpointAvgF,DewpointLowF,HumidityHigh,HumidityAvg,HumidityLow,PressureMaxIn,PressureMinIn,WindSpeedMaxMPH,WindSpeedAvgMPH,GustSpeedMaxMPH,PrecipitationSumIn
2013-1-1,70,57,44,65,-72,-100,99,17,70,0.00,40.00,14,6,24,0.00
2013-1-2,70,54,41,60,-80,-100,99,12,71,0.00,40.00,8,5,18,0.00
2013-1-3,70,56,42,61,-78,-100,99,12,63,0.00,40.00,9,5,18,0.00
2013-1-4,69,59,41,63,-80,-100,99,11,80,0.00,40.00,27,19,54,0.00
2013-1-5,67,58,52,54,-80,-100,90,10,73,0.00,40.00,32,22,56,0.00
2013-1-6,70,60,53,55,-74,-100,83,13,60,0.00,40.00,27,22,48,0.00
2013-1-7,68,58,46,64,-80,-100,95,12,93,0.00,40.00,22,11,38,0.00
2013-1-8,71,57,42,58,-80,-100,98,10,63,0.00,40.00,18,7,41,0.00
2013-1-9,70,57,47,59,-81,-100,88,10,68,0.00,40.00,10,6,24,0.00
2013-1-10,69,56,42,57,-77,-100,99,13,69,0.00,40.00,12,7,33,0.00
2013-1-11,67,54,41,58,-74,-100,99,15,69,0.00,40.00,8,5,21,0.00
2013-1-12,69,55,44,54,-86,-100,99,9,97,0.00,40.00,8,4,19,0.00
2013-1-13,70,57,44,57,-73,-100,99,16,70,0.00,40.00,9,4,18,0.00
2013-1-14,73,59,47,60,-85,-100,96,8,63,0.00,40.00,9,5,20,0.00
2013-1-15,71,61,52,70,-71,-100,99,17,87,0.00,40.00,11,6,25,0.00
2013-1-16,70,58,46,65,-80,-100,98,12,91,0.00,40.00,11,6,23,0.00
2013-1-17,69,55,39,56,-74,-100,99,14,69,0.00,40.00,12,7,23,0.00
2013-1-18,69,54,35,56,-81,-100,96,10,67,0.00,40.00,8,4,18,0.00
2013-1-19,69,51,38,41,-84,-100,83,5,8,0.00,40.00,9,6,22,0.00
2013-1-20,68,53,37,27,-88,-100,41,2,3,0.00,40.00,8,5,17,0.00
2013-1-21,72,58,42,50,-75,-100,63,9,45,0.00,40.00,22,7,31,0.00
2013-1-22,68,60,43,37,-86,-100,65,4,7,0.00,40.00,24,8,43,0.00
2013-1-23,69,54,40,49,-81,-100,86,9,46,0.00,40.00,8,5,20,0.00
2013-1-24,65,52,38,58,-80,-100,98,12,85,0.00,40.00,7,4,19,0.00
2013-1-25,70,57,43,54,-72,-100,99,16,61,0.00,40.00,9,5,17,0.00
2013-1-26,67,53,40,46,-87,-100,96,6,46,0.00,40.00,7,5,19,0.00
2013-1-27,68,54,37,53,-80,-100,86,10,49,0.00,40.00,9,5,19,0.00
2013-1-28,67,54,40,57,-78,-100,99,14,88,0.00,40.00,8,5,17,0.00
2013-1-29,66,56,49,56,-78,-100,99,12,63,0.00,40.00,8,4,14,0.10
2013-1-30,63,58,54,58,-70,-100,99,16,37,0.00,40.00,6,4,13,0.30
2013-1-31,64,58,46,46,-52,-100,99,25,52,0.00,40.00,8,5,18,0.10
2013-2-1,70,48,67,47,-5,-100,48,24,23,0.00,40.00,9,8,24,0.00
2013-2-2,51,7,51,-100,-100,-100,0,0,100,0.00,40.00,7,3,0,0.00
2013-2-3,-200,0,200,-100,-100,-100,0,0,100,0.00,40.00,16,7,0,0.00
2013-2-4,76,25,57,-100,-100,-100,0,0,100,0.00,40.00,22,11,0,0.00
2013-2-5,59,33,54,50,-40,-100,85,31,71,0.00,40.00,7,6,0,0.00
2013-2-6,66,19,60,54,-90,-100,77,5,77,0.00,40.00,9,6,0,0.00
2013-2-7,63,15,62,-100,-100,-100,0,0,100,0.00,40.00,14,8,0,0.00
2013-2-8,67,12,4,-100,-100,-100,0,0,100,0.00,40.00,7,5,0,0.00
2013-2-9,45,4,45,35,-86,-100,67,7,67,0.00,40.00,6,4,0,0.00
2013-2-10,-200,0,200,-100,-100,-100,0,0,100,0.00,40.00,9,5,0,0.00
2013-2-11,63,34,44,50,-9,-100,94,48,57,0.00,40.00,8,5,33,0.00
2013-2-12,69,52,40,47,40,27,95,67,29,0.00,40.00,11,4,21,0.00
2013-2-13,64,51,37,48,35,16,91,57,27,0.00,40.00,9,5,20,0.00
2013-2-14,65,52,36,50,42,25,97,71,47,0.00,40.00,9,5,22,0.00
2013-2-15,73,54,38,51,39,22,99,63,20,0.00,40.00,12,7,39,0.00
2013-2-16,69,57,46,47,42,34,79,58,39,0.00,40.00,21,12,37,0.00
2013-2-17,65,57,52,46,39,23,73,52,31,0.00,40.00,27,20,48,0.00
2013-2-18,65,56,47,47,42,33,80,61,41,0.00,40.00,25,18,49,0.00
2013-2-19,70,57,46,50,42,29,93,62,22,0.00,40.00,16,7,31,0.00
2013-2-20,66,53,43,53,40,25,94,64,31,0.00,40.00,18,8,30,0.42
2013-2-21,66,54,43,55,46,37,97,75,43,0.00,40.00,19,8,35,0.41
2013-2-22,61,55,50,50,46,41,89,72,55,0.00,40.00,18,11,35,0.05
2013-2-23,66,52,43,53,47,39,99,85,49,0.00,40.00,10,5,30,0.64
2013-2-24,65,54,45,52,47,42,99,78,47,0.00,40.00,14,7,29,0.01
2013-2-25,69,55,42,53,45,35,91,72,39,0.00,40.00,15,8,27,0.00
2013-2-26,72,55,45,51,42,29,95,66,23,0.00,40.00,14,8,32,0.00
2013-2-27,66,53,44,52,46,42,99,80,45,0.00,40.00,10,6,20,0.00
2013-2-28,65,52,42,52,43,33,97,73,44,0.00,40.00,9,5,21,0.00
2013-3-1,66,52,41,50,45,39,99,78,49,0.00,40.00,10,6,23,0.00
2013-3-2,67,54,44,50,46,41,99,78,44,0.00,40.00,13,7,29,0.00
2013-3-3,73,53,37,52,36,-20,99,66,2,0.00,40.00,16,7,33,0.00
2013-3-4,66,54,38,47,33,17,78,49,15,0.00,40.00,10,7,21,0.00
2013-3-5,66,53,38,51,41,28,97,66,36,0.00,40.00,9,5,22,0.00
2013-3-6,66,52,38,54,45,31,100,81,42,0.00,40.00,9,4,21,0.02
2013-3-7,63,52,36,55,47,34,100,87,55,0.00,40.00,8,4,19,0.04
2013-3-8,65,54,39,52,48,36,100,82,54,0.00,40.00,8,5,17,0.05
2013-3-9,66,54,38,51,44,36,96,71,48,0.00,40.00,18,9,33,0.01
2013-3-10,65,57,47,49,44,36,95,65,43,0.00,40.00,17,10,31,0.00
2013-3-11,68,54,41,56,44,32,97,72,36,0.00,40.00,11,7,21,0.03
2013-3-12,64,56,50,54,50,41,98,83,57,0.00,40.00,11,5,22,0.03
2013-3-13,68,55,44,54,46,37,98,73,40,0.00,40.00,10,5,20,0.00
2013-3-14,68,54,42,54,48,36,97,81,31,0.00,40.00,10,5,20,0.00
2013-3-15,64,56,50,56,50,44,97,81,68,0.00,40.00,12,9,22,0.00
2013-3-16,64,55,50,53,45,25,99,72,29,0.00,40.00,12,7,22,0.00
2013-3-17,60,54,45,51,47,41,99,79,55,0.00,40.00,15,8,26,0.00
2013-3-18,68,54,39,47,44,33,95,70,44,0.00,40.00,12,6,28,0.00
2013-3-19,68,53,37,53,45,36,96,76,45,0.00,40.00,12,7,27,0.00
2013-3-20,66,54,42,56,48,38,99,83,51,0.00,40.00,6,4,15,0.00
2013-3-21,68,56,45,55,48,39,100,77,49,0.00,40.00,9,5,20,0.00
2013-3-22,64,55,45,56,48,38,98,80,40,0.00,40.00,7,5,16,0.00
2013-3-23,64,56,49,57,52,46,98,87,65,0.00,40.00,7,4,15,0.00
2013-3-24,64,56,50,56,52,48,99,86,65,0.00,40.00,10,4,18,0.00
2013-3-25,69,57,45,55,50,43,98,79,46,0.00,40.00,8,4,19,0.00
2013-3-26,69,57,45,54,49,44,97,78,51,0.00,40.00,9,5,21,0.00
2013-3-27,68,56,46,53,46,39,98,73,42,0.00,40.00,9,5,23,0.00
2013-3-28,69,60,46,51,46,40,90,63,44,0.00,40.00,10,6,23,0.00
2013-3-29,66,55,43,56,48,38,100,80,44,0.00,40.00,9,5,20,0.37
2013-3-30,60,52,44,54,50,43,99,93,72,0.00,40.00,9,3,16,0.41
2013-3-31,67,54,43,52,47,18,97,79,46,0.00,40.00,9,6,21,0.01
2013-4-1,66,50,33,47,34,9,100,62,13,0.00,40.00,12,6,24,0.00
2013-4-2,63,50,35,51,43,32,98,78,48,0.00,40.00,11,5,21,0.00
2013-4-3,65,51,38,50,44,32,99,79,48,0.00,40.00,9,5,20,0.00
2013-4-4,68,53,41,51,45,40,97,77,48,0.00,40.00,9,5,23,0.00
2013-4-5,68,55,43,56,48,37,99,77,47,0.00,40.00,9,5,21,0.00
2013-4-6,72,58,44,54,48,39,99,70,44,0.00,40.00,9,5,20,0.00
2013-4-7,73,61,48,57,46,30,98,62,20,0.00,40.00,12,8,24,0.00
2013-4-8,68,56,39,56,47,31,98,73,34,0.00,40.00,10,5,21,0.00
2013-4-9,68,57,46,57,51,44,100,84,42,0.00,40.00,9,4,20,0.03
2013-4-10,71,60,43,55,46,33,100,65,26,0.00,40.00,8,5,19,0.03
2013-4-11,78,60,42,55,47,16,99,69,10,0.00,40.00,10,6,20,0.00
2013-4-12,70,58,41,56,50,40,100,79,46,0.00,40.00,9,5,21,0.00
2013-4-13,78,61,53,55,48,30,98,68,17,0.00,40.00,10,5,24,0.00
2013-4-14,71,60,46,57,48,33,98,67,25,0.00,40.00,10,5,21,0.00
2013-4-15,73,59,44,57,47,30,97,68,22,0.00,40.00,9,5,19,0.00
2013-4-16,72,60,47,56,48,32,97,68,38,0.00,40.00,9,5,24,0.00
2013-4-17,68,58,47,59,47,25,99,69,29,0.00,40.00,9,6,20,0.02
2013-4-18,69,58,48,56,52,47,100,81,55,0.00,40.00,8,6,22,0.02
2013-4-19,69,56,45,59,49,39,99,80,35,0.00,40.00,9,5,18,1.70
2013-4-20,68,57,46,57,51,45,100,81,44,0.00,40.00,8,4,19,0.03
2013-4-21,69,56,43,55,46,32,99,72,41,0.00,40.00,10,5,20,0.00
2013-4-22,70,59,48,56,46,31,99,65,39,0.00,40.00,10,6,24,0.00
2013-4-23,73,58,43,57,50,40,100,78,42,0.00,40.00,11,5,22,0.00
2013-4-24,74,60,46,54,46,30,99,65,23,0.00,40.00,9,5,21,0.00
2013-4-25,72,58,44,56,49,42,100,78,36,0.00,40.00,12,6,26,0.00
2013-4-26,68,56,43,55,50,41,100,81,55,0.00,40.00,11,6,22,0.00
2013-4-27,69,56,43,56,50,42,100,81,44,0.00,40.00,9,5,21,0.00
2013-4-28,70,58,44,57,51,39,100,79,54,0.00,40.00,10,5,20,0.00
2013-4-29,69,58,45,56,52,45,99,83,57,0.00,40.00,10,5,19,0.00
2013-4-30,69,58,44,57,52,43,98,81,44,0.00,40.00,9,5,20,0.00
2013-5-1,70,56,44,59,51,43,100,84,46,0.00,40.00,9,5,20,0.00
2013-5-2,69,58,44,58,54,43,100,86,54,0.00,40.00,9,5,19,0.02
2013-5-3,67,56,45,57,53,43,100,91,69,0.00,40.00,8,4,15,0.02
2013-5-4,68,59,49,55,53,48,99,82,59,0.00,40.00,10,5,20,0.00
2013-5-5,68,58,50,58,53,49,100,86,63,0.00,40.00,9,4,17,0.00
2013-5-6,70,59,48,57,53,45,99,83,44,0.00,40.00,8,4,19,0.00
2013-5-7,71,60,47,60,54,45,98,82,52,0.00,40.00,9,5,18,0.00
2013-5-8,71,60,47,60,50,39,100,74,35,0.00,40.00,9,5,20,0.01
2013-5-9,74,61,55,61,57,52,100,87,58,0.00,40.00,12,6,23,0.01
2013-5-10,72,63,52,61,58,52,100,85,64,0.00,40.00,10,5,19,0.01
2013-5-11,72,63,50,59,56,49,97,81,50,0.00,40.00,10,4,20,0.01
2013-5-12,73,61,53,60,56,51,99,83,60,0.00,40.00,10,6,23,0.00
2013-5-13,74,61,51,58,55,50,99,82,54,0.00,40.00,11,6,22,0.00
2013-5-14,73,60,49,57,52,46,96,78,53,0.00,40.00,12,6,26,0.00
2013-5-15,72,60,47,57,52,45,98,79,53,0.00,40.00,11,6,24,0.00
2013-5-16,70,53,45,57,30,-100,99,78,44,0.00,40.00,11,5,24,0.00
2013-5-17,70,57,45,56,43,-100,98,77,43,0.00,40.00,12,6,25,0.00
2013-5-18,69,57,46,58,52,44,100,85,55,0.00,40.00,9,5,17,0.02
2013-5-19,65,58,53,57,54,49,100,87,59,0.00,40.00,7,5,19,0.01
2013-5-20,68,57,45,52,48,41,100,75,48,0.00,40.00,11,6,22,0.01
2013-5-21,70,59,44,57,50,38,93,74,48,0.00,40.00,11,6,24,0.01
2013-5-22,70,59,46,58,53,44,97,80,51,0.00,40.00,9,4,18,0.00
2013-5-23,74,60,48,55,51,46,98,74,47,0.00,40.00,10,5,23,0.00
2013-5-24,71,60,47,56,52,42,99,76,50,0.00,40.00,12,6,27,0.00
2013-5-25,73,59,48,60,54,34,100,87,24,0.00,40.00,15,6,27,0.06
2013-5-26,72,59,50,60,54,49,100,85,65,0.00,40.00,11,6,29,0.01
2013-5-27,69,58,49,57,52,46,97,81,51,0.00,40.00,11,6,23,0.34
2013-5-28,69,58,47,59,54,46,100,88,59,0.00,40.00,9,4,18,1.53
2013-5-29,71,59,49,60,55,49,100,89,57,0.00,40.00,8,4,17,0.04
2013-5-30,72,62,48,60,55,43,100,79,35,0.00,40.00,8,5,18,0.01
2013-5-31,73,62,45,61,53,42,100,78,36,0.00,40.00,10,5,19,0.00
2013-6-1,76,62,50,59,52,28,100,76,21,0.00,40.00,13,6,33,0.00
2013-6-2,82,68,50,54,38,19,100,44,16,0.00,40.00,23,13,40,0.01
2013-6-3,70,62,51,58,50,14,100,70,14,0.00,40.00,17,7,29,0.01
2013-6-4,79,62,51,56,46,24,100,66,14,0.00,40.00,23,10,47,0.00
2013-6-5,69,60,49,56,53,49,100,81,56,0.00,40.00,12,6,24,0.00
2013-6-6,69,59,46,57,53,45,100,82,50,0.00,40.00,11,6,22,0.00
2013-6-7,70,59,46,57,51,42,100,77,38,0.00,40.00,12,6,25,0.00
2013-6-8,71,59,46,57,52,45,100,81,45,0.00,40.00,10,5,24,0.00
2013-6-9,72,60,50,57,53,45,100,80,53,0.00,40.00,10,5,20,0.00
2013-6-10,73,62,48,57,50,40,91,67,37,0.00,40.00,8,5,19,0.00
2013-6-11,76,63,50,58,49,32,95,63,20,0.00,40.00,8,5,19,0.00
2013-6-12,73,60,41,60,50,32,98,72,29,0.00,40.00,14,6,27,0.00
2013-6-13,72,61,49,57,52,46,100,75,44,0.00,40.00,18,7,35,0.00
2013-6-14,70,58,46,57,51,45,97,78,49,0.00,40.00,10,6,23,0.00
2013-6-15,71,60,49,56,52,46,96,76,47,0.00,40.00,10,6,22,0.00
2013-6-16,70,61,49,59,54,48,99,81,49,0.00,40.00,10,5,23,0.00
2013-6-17,72,59,48,57,53,47,98,83,52,0.00,40.00,8,4,24,0.00
2013-6-18,70,60,49,60,55,48,100,85,60,0.00,40.00,10,5,21,0.00
2013-6-19,72,62,51,55,53,49,100,75,50,0.00,40.00,10,5,19,0.00